PORT of KAVALA

Country: Greece Country: Greece [GR]
Latitude / Longitude: 40.931315° / 24.402075° Show on Map
Local Time:  [UTC +3]
UN/LOCODE: GRKVA
Vessels in Port: 3
Expected Arrivals: 1

Recent Arrivals & Departures


Vessel Name
Arrival (UTC)
Arrival (LT)
Departure (UTC)
Departure (LT)
Vessel Type: Passenger Vessels  SKALA PRINOS 2014-08-30 17:47:00 2014-08-30 20:47:00 2014-08-30 20:17:00 2014-08-30 23:17:00
Vessel Type: Passenger Vessels  THASSOS VI 2014-08-30 16:24:00 2014-08-30 19:24:00 2014-08-30 17:09:00 2014-08-30 20:09:00
Vessel Type: Cargo Vessels  EPSILON 2014-08-30 16:49:00 2014-08-30 19:49:00
Vessel Type: Passenger Vessels  SKALA PRINOS 2014-08-30 10:42:00 2014-08-30 13:42:00 2014-08-30 16:19:00 2014-08-30 19:19:00
Vessel Type: Passenger Vessels  THASSOS VI 2014-08-30 12:39:00 2014-08-30 15:39:00 2014-08-30 13:23:00 2014-08-30 16:23:00
Vessel Type: Passenger Vessels  PANAGIA THASOU 2014-08-30 10:25:00 2014-08-30 13:25:00 2014-08-30 11:10:00 2014-08-30 14:10:00
Vessel Type: Cargo Vessels  EPSILON 2014-08-30 06:30:00 2014-08-30 09:30:00 2014-08-30 10:09:00 2014-08-30 13:09:00
Vessel Type: Passenger Vessels  SKALA PRINOS 2014-08-29 21:58:00 2014-08-30 00:58:00 2014-08-30 09:26:00 2014-08-30 12:26:00
Vessel Type: Passenger Vessels  THASSOS VI 2014-08-30 08:43:00 2014-08-30 11:43:00 2014-08-30 09:24:00 2014-08-30 12:24:00
Vessel Type: Passenger Vessels  MYTILENE 2014-08-29 14:48:00 2014-08-29 17:48:00 2014-08-30 09:13:00 2014-08-30 12:13:00

Expected Arrivals


Vessel Name
Scheduled Arrival (UTC)
Scheduled Arrival (LT)
Estimated Arrival (UTC)
Estimated Arrival (LT)
Vessel Type: Cargo Vessels  NIKOLAOS K 2014-08-31 14:00:00 2014-08-31 17:00:00 2014-08-31 13:56:00 2014-08-31 16:56:00

Wind Forecast


    
Time (UTC)
Speed
Direction
Temperature
2014-08-30 21:00:00 15 knots 45° 23°C
2014-08-31 00:00:00 14 knots 31° 21°C
2014-08-31 03:00:00 11 knots 20°C
2014-08-31 06:00:00 8 knots 32° 20°C
2014-08-31 09:00:00 7 knots 64° 23°C
2014-08-31 12:00:00 3 knots 131° 25°C
2014-08-31 15:00:00 2 knots 166° 26°C
2014-08-31 18:00:00 5 knots 70° 25°C
2014-08-31 21:00:00 12 knots 51° 24°C
2014-09-01 00:00:00 11 knots 33° 22°C
2014-09-01 03:00:00 9 knots 21°C
2014-09-01 06:00:00 7 knots 34° 22°C
2014-09-01 09:00:00 4 knots 88° 24°C
2014-09-01 12:00:00 4 knots 193° 24°C
2014-09-01 15:00:00 5 knots 217° 24°C
2014-09-01 18:00:00 4 knots 262° 24°C
2014-09-01 21:00:00 4 knots 346° 24°C